Glens Falls, NY

10:15 EDT le 01 octobre 2014 (GMT -0400)
Schenectady County | Change Station
CLOSE
Current Station
Aéroport
Location: Schenectady,
Altitude: 377 ft
Stations météo à proximité

Alt. 377 ft 42.85 °N, 73.93 °W | Updated 29 minutes ago

Couvert
Couvert
63 ° F
Paraît 63 ° F
N
8
Vent Variable Vent de NE

Aujourd'hui
Haut(e) -- | Bas -- ° F
--% Risque de précip.
Hier
Haut(e) -- | Bas -- ° F
Precip. -- pouce
6:51 AM 6:35 PM
Lune montante, 48% visible
Pression 30.11 pouce
Visibilité 10.0 Miles terrestres
Nuages Nuages épars 1300 ft
Nuages épars 2400 ft
Couvert 11000 ft
Point de rosée 55 ° F
Humidité 77%
Précipitations 0.00 pouce
Profondeur de la couche neigeuse Non disponible.
UV 1 sur 12
Pollen 1.20 sur 12
Qualité de l'air Non disponible.
Flu Activity Non disponible.
METAR KSCH 011346Z 04007KT 10SM SCT013 SCT024 OVC110 17/13 A3011

More Conditions Fewer Conditions

Pression 30.11 pouce
Visibilité 10.0 Miles terrestres
Nuages Nuages épars 1300 ft
Nuages épars 2400 ft
Couvert 11000 ft
Point de rosée 55 ° F
Humidité 77%
Précipitations 0.00 pouce
Profondeur de la couche neigeuse Non disponible.
UV 1 sur 12
Pollen 1.20 sur 12
Qualité de l'air Non disponible.
Flu Activity Non disponible.
METAR KSCH 011346Z 04007KT 10SM SCT013 SCT024 OVC110 17/13 A3011

More Conditions Fewer Conditions

10-Day Weather Forecast

Almanac

Astronomie

Oct. 01, 2014 Lever Coucher
Temps réel 06:51 EDT 18:35 EDT
Crépuscule civil 06:23 EDT 19:04 EDT
Crépuscule nautique 05:50 EDT 19:37 EDT
Crépuscule astronomique 05:16 EDT 20:10 EDT
Lune 13:57 EDT 23:57 EDT
Durée de lumière visible 12h 40m
Longueur du jour
11h 43m
Tomorrow will be 2m 56s shorter.
Lune montante, 48% of the Moon is Illuminated
Aujourd'hui
Lune montante
Oct 1
Premier quartier
Oct 8
Pleine lune
Oct 15
Dernier quartier
Oct 23
Nouveau

Extrêmes aujourd'hui

State Highs State Lows

Community

WunderPhotos

Upload Photos

1,757,952 Photos téléchargées !

Nearby

Qualité de l'air

  Qualité de l'air Indice de la qualité de l'air Polluant
mercredi Bon
PM2.5

Épaisseur de neige

Station Depth Altitude
Pas de nouvelles chutes de neige

Activité sismique

Ville Distance Mag. Time & Date
No recent earthquake activity has been reported nearby.
Minimum magnitude displayed is 2.5.

Températures des eaux côtières

Lieu Température
Aucun rapport de station

Stations météo à proximité